Pagina principale
METAR-TAF:

METAR-TAF

Aeroporti :

Aeroporto di Biggin Hill

Londra Biggin Hill, Inghilterra

latitudine: 51-19N, longitudine: 000-02E, altezza: 183 m

Osservazione

Il bollettino è stato emesso 8 ore e 40 minuti fa, alle 21:50 UTC
Vento 3 kt da direzioni variabili
Temperature 4°C
Umidità 93%
Pressione 1013 hPa
Visibilità: 2000 m
Nuvoloso ad un'altezza di 200 ft
foschia

METAR: EGKB 172150Z VRB03KT 2000 BR BKN002 04/03 Q1013

Ora: 06:30 (06:30 UTC)

Previsione

Il bollettino è stato emesso 9 ore e 25 minuti fa, alle 21:05 UTC
Previsione valida dal 17 alle 21 UTC al 17 alle 22 UTC
Vento 4 kt da direzioni variabili
Visibilità 10 km o più
Nubi sparse ad un'altezza di 3000 ft
Evoluzione graduale
dal 17 alle 21 UTC al 17 alle 22 UTC
Visibilità: 4000 m
Nuvoloso ad un'altezza di 500 ft
foschia

TAF: EGKB 172105Z 1721/1722 VRB04KT 9999 SCT030 BECMG 1721/1722 4000 BR BKN005

Osservazioni e previsioni meteorologiche di più di 4000 aeroporti (messaggi METAR e TAF).

Le stazioni disponibili sono rappresentate dai dischi gialli e rossi sulla carta.

Puntare il mouse per vedere il nome della stazione.

Clicca sopra per visualizzare le osservazioni e previsioni meteorologiche.

Per cambiare la mappa : fare clic sui pulsanti verdi con una croce nera per ingrandire, il pulsante verde con un trattino per diminuire, o sulla freccia verde per le mappe adiacenti.


METAR-TAF: